createdAt,value
2022-08-05T00:00:25.903Z,53.87
2022-08-05T00:01:00.945Z,53.54
2022-08-05T00:01:49.703Z,53.00
2022-08-05T00:02:21.540Z,53.23
2022-08-05T00:02:53.220Z,54.16
2022-08-05T00:03:24.851Z,53.74
2022-08-05T00:03:57.452Z,54.26
2022-08-05T00:04:29.241Z,53.97
2022-08-05T00:05:00.801Z,54.22
2022-08-05T00:06:04.602Z,55.71
2022-08-05T00:06:33.285Z,53.61
2022-08-05T00:07:27.102Z,54.00
2022-08-05T00:08:01.272Z,55.44
2022-08-05T00:08:34.727Z,55.33
2022-08-05T00:09:13.151Z,52.73
2022-08-05T00:09:47.467Z,53.42
2022-08-05T00:10:19.557Z,54.06
2022-08-05T00:11:00.436Z,54.58
2022-08-05T00:11:35.077Z,54.66
2022-08-05T00:12:20.242Z,54.36
2022-08-05T00:12:56.619Z,53.72
2022-08-05T00:13:38.503Z,55.61
2022-08-05T00:14:12.802Z,55.79
2022-08-05T00:14:48.588Z,55.71
2022-08-05T00:15:57.679Z,56.17
2022-08-05T00:16:16.242Z,54.73
2022-08-05T00:16:53.702Z,54.97
2022-08-05T00:17:25.849Z,54.90
2022-08-05T00:17:57.462Z,55.17
2022-08-05T00:18:34.210Z,55.02
2022-08-05T00:19:05.926Z,54.95
2022-08-05T00:19:44.076Z,54.92
2022-08-05T00:20:29.128Z,54.79
2022-08-05T00:21:01.001Z,55.36
2022-08-05T00:21:35.913Z,56.12
2022-08-05T00:22:07.885Z,56.51
2022-08-05T00:22:55.250Z,56.70
2022-08-05T00:23:45.682Z,56.53
2022-08-05T00:24:19.269Z,56.84
2022-08-05T00:24:56.519Z,56.43
2022-08-05T00:25:28.196Z,56.95
2022-08-05T00:26:17.634Z,57.25
2022-08-05T00:26:50.739Z,57.10
2022-08-05T00:27:28.325Z,56.77
2022-08-05T00:28:07.348Z,56.95
2022-08-05T00:28:45.709Z,57.47
2022-08-05T00:29:17.581Z,57.61
2022-08-05T00:29:49.843Z,55.91
2022-08-05T00:30:21.631Z,56.01
2022-08-05T00:31:04.272Z,56.78
2022-08-05T00:31:53.084Z,57.27
2022-08-05T00:32:27.897Z,57.43
2022-08-05T00:32:59.521Z,57.22
2022-08-05T00:34:54.548Z,56.95
2022-08-05T00:34:55.261Z,57.25
2022-08-05T00:35:14.792Z,57.28
2022-08-05T00:36:15.878Z,57.09
2022-08-05T00:37:12.380Z,57.38
2022-08-05T00:37:52.380Z,57.33
2022-08-05T00:38:28.849Z,57.83
2022-08-05T00:39:05.485Z,58.91
2022-08-05T00:39:57.806Z,59.26
2022-08-05T00:40:30.513Z,59.05
2022-08-05T00:41:02.268Z,58.47
2022-08-05T00:41:51.975Z,57.48
2022-08-05T00:42:33.205Z,58.29
2022-08-05T00:43:07.528Z,60.79
2022-08-05T00:43:46.930Z,60.98
2022-08-05T00:44:21.197Z,60.68
2022-08-05T00:44:54.967Z,60.54
2022-08-05T00:45:37.829Z,60.61
2022-08-05T00:46:11.093Z,60.70
2022-08-05T00:46:43.840Z,60.83
2022-08-05T00:47:15.398Z,61.25
2022-08-05T00:47:56.855Z,60.89
2022-08-05T00:48:36.405Z,60.14
2022-08-05T00:49:23.022Z,59.37
2022-08-05T00:49:54.619Z,59.66
2022-08-05T00:50:26.188Z,59.79
2022-08-05T00:50:57.769Z,59.74
2022-08-05T00:51:51.657Z,59.86
2022-08-05T00:52:28.282Z,60.65
2022-08-05T00:53:00.654Z,60.72
2022-08-05T00:54:00.330Z,61.55
2022-08-05T00:54:28.129Z,60.42
2022-08-05T00:55:02.705Z,60.89
2022-08-05T00:55:43.513Z,60.89
2022-08-05T00:56:17.392Z,60.38
2022-08-05T00:56:54.416Z,61.08
2022-08-05T00:57:38.411Z,61.29
2022-08-05T00:58:19.131Z,61.93
2022-08-05T00:58:50.980Z,62.03
2022-08-05T00:59:25.232Z,61.98
2022-08-05T01:00:07.311Z,61.72
2022-08-05T01:00:43.608Z,62.21
2022-08-05T01:01:42.105Z,62.15
2022-08-05T01:02:08.058Z,61.55
2022-08-05T01:02:40.424Z,61.96
2022-08-05T01:03:22.862Z,62.51
2022-08-05T01:03:55.049Z,63.00
2022-08-05T01:04:29.794Z,62.58
2022-08-05T01:05:02.037Z,63.27
2022-08-05T01:05:41.610Z,62.30
2022-08-05T01:06:14.038Z,62.73
2022-08-05T01:06:51.701Z,62.89
2022-08-05T01:07:24.204Z,62.33
2022-08-05T01:08:30.768Z,61.87
2022-08-05T01:08:55.768Z,63.77
2022-08-05T01:09:28.992Z,63.36
2022-08-05T01:10:03.428Z,63.45
2022-08-05T01:10:52.531Z,63.77
2022-08-05T01:11:36.770Z,64.11
2022-08-05T01:12:18.108Z,63.92
2022-08-05T01:13:05.068Z,63.72
2022-08-05T01:14:03.416Z,63.76
2022-08-05T01:14:37.177Z,63.67
2022-08-05T01:15:35.718Z,62.93
2022-08-05T01:16:10.091Z,63.38
2022-08-05T01:16:52.808Z,63.37
2022-08-05T01:17:53.639Z,64.03
2022-08-05T01:18:32.849Z,64.33
2022-08-05T01:19:36.639Z,64.50
2022-08-05T01:20:27.123Z,64.27
2022-08-05T01:21:22.754Z,64.47
2022-08-05T01:22:28.916Z,65.30
2022-08-05T01:23:24.545Z,65.21
2022-08-05T01:24:43.810Z,64.54
2022-08-05T01:25:52.363Z,64.23
2022-08-05T01:26:44.491Z,64.54
2022-08-05T01:27:41.032Z,64.36
2022-08-05T01:28:37.120Z,65.51
2022-08-05T01:29:23.038Z,65.76
2022-08-05T01:29:58.680Z,65.58
2022-08-05T01:30:35.286Z,65.19
2022-08-05T01:31:56.205Z,65.69
2022-08-05T01:32:31.013Z,66.09
2022-08-05T01:33:09.468Z,66.04
2022-08-05T01:33:49.020Z,65.39
2022-08-05T01:34:28.076Z,65.58
2022-08-05T01:35:10.727Z,65.83
2022-08-05T01:35:51.085Z,65.86
2022-08-05T01:36:29.407Z,65.66
2022-08-05T01:37:07.413Z,65.10
2022-08-05T01:37:47.557Z,65.72
2022-08-05T01:38:27.555Z,65.60
2022-08-05T01:39:02.156Z,65.41
2022-08-05T01:39:47.185Z,66.86
2022-08-05T01:40:22.149Z,66.51
2022-08-05T01:41:01.919Z,66.33
2022-08-05T01:41:37.587Z,67.01
2022-08-05T01:42:13.782Z,67.05
2022-08-05T01:42:48.805Z,66.99
2022-08-05T01:43:24.165Z,66.66
2022-08-05T01:43:57.034Z,66.70
2022-08-05T01:44:34.259Z,67.08
2022-08-05T01:45:08.504Z,66.91
2022-08-05T01:45:42.984Z,66.95
2022-08-05T01:46:16.251Z,65.79
2022-08-05T01:46:49.510Z,65.26
2022-08-05T01:47:30.549Z,66.67
2022-08-05T01:48:12.426Z,66.97
2022-08-05T01:48:49.360Z,67.10
2022-08-05T01:49:24.950Z,67.01
2022-08-05T01:50:02.057Z,67.48
2022-08-05T01:50:39.957Z,67.20
2022-08-05T01:51:13.000Z,67.12
2022-08-05T01:51:51.758Z,66.73
2022-08-05T01:52:25.409Z,67.44
2022-08-05T01:53:03.184Z,67.59
2022-08-05T01:53:54.576Z,67.33
2022-08-05T01:54:46.545Z,67.65
2022-08-05T01:55:22.422Z,67.50
2022-08-05T01:55:59.503Z,67.70
2022-08-05T01:58:10.638Z,67.29
2022-08-05T01:58:18.882Z,67.65
2022-08-05T01:58:44.840Z,68.10
2022-08-05T01:59:21.828Z,66.72
2022-08-05T01:59:58.472Z,66.48
2022-08-05T02:01:14.597Z,68.04
2022-08-05T02:01:51.818Z,67.79
2022-08-05T02:02:29.590Z,66.88
2022-08-05T02:03:31.609Z,68.24
2022-08-05T02:04:07.030Z,68.29
2022-08-05T02:04:42.772Z,67.77
2022-08-05T02:05:23.531Z,67.86
2022-08-05T02:05:57.842Z,67.53
2022-08-05T02:06:37.663Z,67.81
2022-08-05T02:07:10.512Z,66.36
2022-08-05T02:08:00.116Z,67.65
2022-08-05T02:08:40.766Z,67.64
2022-08-05T02:09:16.573Z,68.13
2022-08-05T02:09:52.625Z,67.84
2022-08-05T02:10:28.576Z,68.26
2022-08-05T02:11:24.058Z,67.31
2022-08-05T02:12:14.253Z,68.09
2022-08-05T02:12:55.219Z,68.68
2022-08-05T02:14:02.673Z,69.02
2022-08-05T02:14:47.922Z,68.62
2022-08-05T02:15:33.547Z,68.16
2022-08-05T02:16:30.332Z,68.04
2022-08-05T02:17:29.913Z,69.65
2022-08-05T02:18:27.781Z,69.43
2022-08-05T02:19:19.016Z,69.43
2022-08-05T02:19:55.320Z,69.52
2022-08-05T02:20:30.701Z,69.94
2022-08-05T02:21:15.522Z,69.34
2022-08-05T02:21:58.301Z,69.83
2022-08-05T02:22:36.396Z,70.77
2022-08-05T02:23:13.487Z,70.21
2022-08-05T02:23:51.596Z,69.97
2022-08-05T02:24:28.121Z,69.81
2022-08-05T02:25:08.428Z,69.19
2022-08-05T02:25:49.804Z,69.05
2022-08-05T02:26:38.084Z,69.26
2022-08-05T02:27:30.162Z,68.92
2022-08-05T02:28:29.307Z,68.53
2022-08-05T02:29:04.026Z,68.74
2022-08-05T02:29:59.772Z,68.74
2022-08-05T02:30:37.644Z,68.82
2022-08-05T02:31:28.307Z,69.72
2022-08-05T02:32:04.841Z,69.19
2022-08-05T02:32:38.107Z,68.26
2022-08-05T02:33:16.120Z,69.07
2022-08-05T02:34:02.646Z,69.58
2022-08-05T02:34:35.892Z,69.63
2022-08-05T02:35:19.015Z,69.39
2022-08-05T02:36:00.670Z,70.00
2022-08-05T02:36:36.416Z,69.60
2022-08-05T02:37:10.785Z,69.56
2022-08-05T02:37:47.859Z,69.36
2022-08-05T02:38:35.229Z,68.95
2022-08-05T02:39:10.253Z,68.98
2022-08-05T02:39:42.450Z,68.68
2022-08-05T02:40:21.342Z,68.80
2022-08-05T02:40:54.267Z,68.99
2022-08-05T02:41:28.703Z,69.54
2022-08-05T02:42:09.967Z,69.54
2022-08-05T02:42:59.228Z,69.43
2022-08-05T02:43:33.239Z,69.50
2022-08-05T02:44:13.227Z,70.44
2022-08-05T02:44:46.260Z,70.10
2022-08-05T02:45:19.420Z,70.53
2022-08-05T02:45:56.621Z,70.57
2022-08-05T02:46:34.028Z,70.76
2022-08-05T02:47:09.955Z,70.14
2022-08-05T02:48:07.059Z,68.58
2022-08-05T02:48:35.101Z,69.70
2022-08-05T02:49:11.137Z,69.80
2022-08-05T02:49:44.564Z,69.83
2022-08-05T02:50:18.156Z,69.93
2022-08-05T02:50:51.780Z,69.88
2022-08-05T02:51:28.463Z,69.27
2022-08-05T02:52:30.233Z,69.65
2022-08-05T02:53:03.622Z,70.16
2022-08-05T02:53:39.325Z,70.52
2022-08-05T02:54:34.474Z,70.51
2022-08-05T02:55:10.862Z,72.00
2022-08-05T02:55:55.315Z,71.74
2022-08-05T02:56:33.728Z,72.11
2022-08-05T02:58:09.459Z,71.88
2022-08-05T02:58:09.833Z,72.32
2022-08-05T02:58:45.090Z,71.92
2022-08-05T02:59:27.155Z,71.76
2022-08-05T02:59:59.640Z,71.76
2022-08-05T03:00:35.965Z,72.13
2022-08-05T03:01:11.065Z,71.62
2022-08-05T03:01:43.283Z,71.32
2022-08-05T03:02:20.468Z,70.53
2022-08-05T03:02:52.956Z,70.81
2022-08-05T03:03:26.121Z,70.37
2022-08-05T03:04:02.748Z,70.65
2022-08-05T03:04:44.329Z,70.59
2022-08-05T03:05:17.147Z,70.50
2022-08-05T03:06:56.160Z,70.01
2022-08-05T03:06:57.017Z,70.31
2022-08-05T03:08:01.853Z,70.24
2022-08-05T03:08:29.687Z,70.56
2022-08-05T03:09:02.303Z,70.96
2022-08-05T03:09:38.443Z,71.71
2022-08-05T03:10:21.968Z,71.31
2022-08-05T03:11:41.191Z,70.64
2022-08-05T03:11:55.787Z,70.99
2022-08-05T03:12:39.716Z,70.65
2022-08-05T03:13:17.725Z,71.12
2022-08-05T03:13:51.500Z,70.99
2022-08-05T03:14:35.036Z,70.79
2022-08-05T03:15:17.538Z,71.07
2022-08-05T03:15:49.141Z,71.29
2022-08-05T03:16:23.590Z,70.70
2022-08-05T03:16:55.712Z,70.87
2022-08-05T03:17:27.482Z,71.08
2022-08-05T03:18:00.222Z,70.83
2022-08-05T03:18:31.776Z,71.22
2022-08-05T03:19:12.691Z,71.12
2022-08-05T03:19:49.802Z,70.21
2022-08-05T03:20:21.384Z,69.73
2022-08-05T03:20:55.292Z,70.34
2022-08-05T03:21:28.955Z,70.79
2022-08-05T03:22:16.012Z,70.76
2022-08-05T03:22:49.970Z,70.79
2022-08-05T03:23:24.047Z,70.82
2022-08-05T03:23:56.875Z,70.15
2022-08-05T03:24:30.847Z,70.72
2022-08-05T03:25:31.452Z,70.92
2022-08-05T03:26:30.497Z,71.47
2022-08-05T03:26:49.421Z,70.61
2022-08-05T03:27:22.474Z,70.56
2022-08-05T03:28:04.291Z,70.62
2022-08-05T03:28:36.939Z,71.10
2022-08-05T03:29:12.368Z,71.06
2022-08-05T03:30:08.237Z,70.86
2022-08-05T03:30:41.084Z,70.77
2022-08-05T03:31:18.210Z,70.89
2022-08-05T03:32:06.918Z,70.58
2022-08-05T03:32:41.172Z,71.58
2022-08-05T03:33:13.672Z,71.19
2022-08-05T03:33:52.746Z,71.74
2022-08-05T03:34:27.240Z,71.55
2022-08-05T03:34:59.633Z,71.82
2022-08-05T03:35:41.305Z,72.04
2022-08-05T03:36:13.702Z,72.36
2022-08-05T03:36:45.814Z,71.94
2022-08-05T03:37:18.542Z,71.73
2022-08-05T03:37:50.452Z,71.83
2022-08-05T03:38:33.070Z,72.18
2022-08-05T03:39:08.326Z,72.30
2022-08-05T03:40:01.826Z,72.30
2022-08-05T03:40:39.533Z,72.10
2022-08-05T03:41:11.820Z,71.75
2022-08-05T03:41:45.478Z,71.84
2022-08-05T03:42:18.567Z,71.18
2022-08-05T03:42:52.271Z,71.69
2022-08-05T03:44:09.902Z,71.74
2022-08-05T03:44:19.807Z,71.95
2022-08-05T03:44:51.752Z,72.12
2022-08-05T03:45:23.813Z,71.87
2022-08-05T03:45:58.821Z,72.00
2022-08-05T03:46:32.515Z,70.57
2022-08-05T03:47:04.393Z,71.07
2022-08-05T03:47:41.325Z,71.69
2022-08-05T03:48:14.063Z,71.88
2022-08-05T03:48:53.495Z,72.21
2022-08-05T03:49:51.043Z,71.45
2022-08-05T03:50:17.132Z,71.33
2022-08-05T03:52:38.008Z,71.68
2022-08-05T03:52:39.199Z,71.65
2022-08-05T03:55:51.933Z,71.11
2022-08-05T03:55:52.425Z,71.11
2022-08-05T03:56:04.663Z,70.83
2022-08-05T03:56:27.824Z,71.00
2022-08-05T03:57:16.004Z,71.29
2022-08-05T03:57:53.467Z,71.65
2022-08-05T03:58:29.615Z,71.57
2022-08-05T03:59:04.079Z,71.67
2022-08-05T03:59:47.032Z,71.54
2022-08-05T04:00:25.908Z,71.29
2022-08-05T04:01:02.075Z,71.05
2022-08-05T04:01:39.775Z,71.06
2022-08-05T04:02:17.292Z,71.19
2022-08-05T04:02:58.479Z,71.39
2022-08-05T04:03:35.894Z,71.09
2022-08-05T04:04:11.041Z,71.11
2022-08-05T04:04:44.836Z,70.91
2022-08-05T04:05:17.957Z,71.11
2022-08-05T04:05:50.484Z,71.08
2022-08-05T04:06:23.486Z,71.37
2022-08-05T04:06:59.126Z,71.27
2022-08-05T04:07:33.030Z,70.42
2022-08-05T04:08:29.946Z,70.51
2022-08-05T04:08:59.738Z,70.77
2022-08-05T04:09:32.133Z,70.50
2022-08-05T04:10:09.489Z,70.63
2022-08-05T04:10:43.483Z,70.26
2022-08-05T04:11:15.657Z,70.37
2022-08-05T04:11:50.922Z,69.94
2022-08-05T04:12:24.859Z,69.89
2022-08-05T04:12:58.754Z,69.69
2022-08-05T04:13:50.821Z,69.81
2022-08-05T04:14:29.537Z,70.40
2022-08-05T04:15:03.128Z,70.87
2022-08-05T04:15:36.235Z,70.48
2022-08-05T04:16:09.244Z,70.48
2022-08-05T04:16:46.045Z,68.65
2022-08-05T04:17:17.905Z,68.42
2022-08-05T04:17:57.198Z,67.99
2022-08-05T04:18:29.108Z,68.20
2022-08-05T04:19:02.652Z,68.96
2022-08-05T04:19:46.692Z,69.29
2022-08-05T04:20:26.219Z,68.88
2022-08-05T04:20:58.442Z,67.61
2022-08-05T04:22:09.084Z,67.11
2022-08-05T04:22:21.820Z,66.43
2022-08-05T04:22:53.366Z,65.61
2022-08-05T04:24:05.273Z,65.93
2022-08-05T04:24:19.723Z,65.95
2022-08-05T04:24:54.252Z,66.40
2022-08-05T04:25:56.887Z,67.99
2022-08-05T04:26:17.533Z,66.53
2022-08-05T04:26:49.498Z,65.96
2022-08-05T04:27:41.751Z,65.22
2022-08-05T04:28:13.244Z,66.29
2022-08-05T04:28:51.357Z,65.76
2022-08-05T04:29:23.705Z,66.36
2022-08-05T04:29:58.744Z,65.58
2022-08-05T04:30:35.488Z,64.92
2022-08-05T04:31:08.375Z,65.84
2022-08-05T04:31:43.032Z,65.09
2022-08-05T04:32:14.667Z,63.87
2022-08-05T04:32:51.665Z,63.38
2022-08-05T04:33:54.449Z,64.45
2022-08-05T04:34:31.618Z,64.84
2022-08-05T04:35:05.882Z,63.58
2022-08-05T04:36:11.277Z,61.56
2022-08-05T04:36:45.319Z,61.68
2022-08-05T04:37:18.199Z,61.89
2022-08-05T04:38:02.493Z,61.49
2022-08-05T04:38:39.463Z,60.40
2022-08-05T04:39:11.652Z,59.05
2022-08-05T04:39:44.789Z,57.65
2022-08-05T04:40:24.332Z,57.47
2022-08-05T04:40:55.922Z,57.58
2022-08-05T04:41:36.893Z,58.00
2022-08-05T04:42:09.690Z,58.71
2022-08-05T04:42:41.237Z,56.92
2022-08-05T04:43:16.556Z,59.07
2022-08-05T04:43:52.143Z,58.36
2022-08-05T04:44:30.025Z,54.58
2022-08-05T04:45:01.962Z,55.01
2022-08-05T04:45:48.468Z,54.99
2022-08-05T04:46:28.254Z,54.78
2022-08-05T04:47:09.467Z,55.52
2022-08-05T04:47:42.887Z,55.54
2022-08-05T04:48:28.068Z,55.99
2022-08-05T04:49:00.018Z,54.51
2022-08-05T04:50:01.936Z,55.75
2022-08-05T04:50:37.185Z,57.32
2022-08-05T04:51:17.578Z,55.79
2022-08-05T04:51:49.568Z,56.24
2022-08-05T04:52:33.453Z,55.23
2022-08-05T04:53:06.297Z,56.86
2022-08-05T04:53:40.245Z,57.03
2022-08-05T04:54:12.341Z,56.41
2022-08-05T04:54:44.189Z,56.99
2022-08-05T04:55:15.846Z,57.27
2022-08-05T04:56:33.029Z,56.65
2022-08-05T04:56:44.247Z,55.74
2022-08-05T04:57:15.862Z,55.81
2022-08-05T04:57:51.528Z,56.04
2022-08-05T04:58:25.889Z,55.67
2022-08-05T04:58:57.759Z,54.96
2022-08-05T04:59:36.841Z,55.71
2022-08-05T05:00:11.793Z,55.89
2022-08-05T05:00:45.589Z,55.88
2022-08-05T05:01:33.648Z,56.75
2022-08-05T05:02:37.225Z,54.44
2022-08-05T05:03:06.604Z,55.00
2022-08-05T05:03:42.069Z,54.91
2022-08-05T05:04:14.369Z,53.96
2022-08-05T05:04:48.084Z,54.06
2022-08-05T05:05:28.143Z,53.27
2022-08-05T05:06:38.712Z,53.64
2022-08-05T05:06:57.576Z,53.25
2022-08-05T05:07:32.855Z,53.34
2022-08-05T05:08:14.469Z,53.17
2022-08-05T05:09:00.756Z,52.31
2022-08-05T05:09:37.986Z,52.42
2022-08-05T05:10:09.740Z,52.05
2022-08-05T05:10:47.306Z,53.19
2022-08-05T05:11:41.393Z,53.05
2022-08-05T05:12:19.531Z,53.65
2022-08-05T05:12:51.132Z,53.68
2022-08-05T05:13:22.865Z,53.45
2022-08-05T05:13:55.275Z,53.44
2022-08-05T05:14:27.909Z,53.05
2022-08-05T05:15:04.245Z,52.82
2022-08-05T05:15:56.891Z,51.84
2022-08-05T05:16:30.448Z,52.33
2022-08-05T05:17:03.314Z,52.51
2022-08-05T05:17:56.159Z,52.37
2022-08-05T05:18:33.699Z,51.96
2022-08-05T05:19:18.506Z,51.16
2022-08-05T05:19:54.344Z,50.36
2022-08-05T05:20:28.465Z,50.06
2022-08-05T05:21:00.518Z,50.36
2022-08-05T05:21:33.019Z,50.53
2022-08-05T05:22:24.101Z,50.88
2022-08-05T05:22:58.207Z,50.64
2022-08-05T05:24:01.937Z,50.78
2022-08-05T05:24:21.756Z,50.27
2022-08-05T05:25:00.234Z,50.12
2022-08-05T05:25:41.009Z,49.93
2022-08-05T05:26:12.949Z,49.96
2022-08-05T05:26:46.503Z,49.91
2022-08-05T05:27:19.534Z,50.09
2022-08-05T05:27:53.985Z,49.79
2022-08-05T05:28:27.678Z,49.72
2022-08-05T05:29:01.300Z,49.50
2022-08-05T05:30:03.177Z,49.82
2022-08-05T05:30:29.804Z,49.76
2022-08-05T05:31:03.198Z,49.76
2022-08-05T05:34:02.241Z,50.01
2022-08-05T05:34:34.617Z,49.61
2022-08-05T05:35:06.649Z,49.29
2022-08-05T05:35:42.636Z,49.26
2022-08-05T05:36:14.623Z,49.25
2022-08-05T05:36:47.171Z,49.38
2022-08-05T05:37:22.949Z,48.89
2022-08-05T05:38:13.739Z,48.81
2022-08-05T05:38:46.731Z,48.84
2022-08-05T05:39:19.101Z,48.72
2022-08-05T05:39:51.106Z,48.26
2022-08-05T05:40:26.230Z,48.27
2022-08-05T05:40:59.707Z,49.01
2022-08-05T05:41:40.376Z,48.24
2022-08-05T05:42:28.943Z,48.39
2022-08-05T05:43:02.142Z,48.26
2022-08-05T05:43:56.745Z,48.00
2022-08-05T05:44:36.898Z,48.19
2022-08-05T05:45:09.894Z,48.03
2022-08-05T05:45:59.027Z,47.95
2022-08-05T05:47:30.449Z,47.70
2022-08-05T05:48:19.796Z,47.92
2022-08-05T05:48:59.377Z,47.72
2022-08-05T05:49:38.234Z,47.87
2022-08-05T05:50:16.262Z,47.68
2022-08-05T05:50:52.464Z,47.35
2022-08-05T05:51:25.886Z,47.33
2022-08-05T05:51:59.741Z,47.01
2022-08-05T05:52:34.744Z,47.08
2022-08-05T05:53:21.385Z,46.89
2022-08-05T05:53:58.763Z,47.23
2022-08-05T05:54:49.818Z,46.72
2022-08-05T05:55:22.331Z,47.52
2022-08-05T05:56:00.875Z,46.53
2022-08-05T05:56:35.048Z,47.13
2022-08-05T05:57:13.512Z,47.36
2022-08-05T05:57:52.208Z,48.19
2022-08-05T05:58:31.466Z,46.81
2022-08-05T05:59:07.800Z,46.82
2022-08-05T05:59:40.099Z,46.09
2022-08-05T06:00:16.580Z,46.29
2022-08-05T06:00:48.171Z,46.36
2022-08-05T06:01:23.351Z,46.70
2022-08-05T06:01:57.583Z,46.38
2022-08-05T06:02:36.762Z,46.33
2022-08-05T06:03:28.583Z,45.88
2022-08-05T06:04:03.873Z,46.19
2022-08-05T06:04:35.650Z,46.62
2022-08-05T06:05:16.796Z,46.31
2022-08-05T06:05:58.308Z,46.43
2022-08-05T06:06:34.855Z,46.02
2022-08-05T06:07:06.628Z,46.09
2022-08-05T06:07:41.349Z,46.42
2022-08-05T06:08:14.784Z,46.25
2022-08-05T06:09:07.676Z,46.81
2022-08-05T06:09:59.935Z,46.68
2022-08-05T06:10:36.435Z,46.24
2022-08-05T06:11:09.102Z,46.96
2022-08-05T06:12:01.747Z,45.93
2022-08-05T06:12:35.697Z,45.96
2022-08-05T06:13:13.749Z,46.06
2022-08-05T06:13:50.245Z,47.29
2022-08-05T06:14:27.998Z,46.44
2022-08-05T06:15:01.530Z,46.66
2022-08-05T06:16:28.475Z,46.18
2022-08-05T06:16:30.073Z,46.84
2022-08-05T06:17:22.045Z,45.98
2022-08-05T06:17:55.613Z,46.09
2022-08-05T06:18:30.954Z,45.17
2022-08-05T06:19:05.803Z,44.87
2022-08-05T06:19:39.150Z,44.92
2022-08-05T06:20:18.725Z,45.02
2022-08-05T06:20:54.225Z,44.94
2022-08-05T06:21:36.105Z,45.30
2022-08-05T06:22:09.353Z,44.87
2022-08-05T06:22:40.954Z,44.86
2022-08-05T06:23:14.010Z,44.81
2022-08-05T06:23:46.474Z,44.07
2022-08-05T06:24:27.313Z,44.46
2022-08-05T06:24:59.351Z,44.36
2022-08-05T06:26:12.661Z,44.50
2022-08-05T06:26:24.970Z,45.22
2022-08-05T06:26:56.785Z,44.64
2022-08-05T06:28:12.385Z,44.26
2022-08-05T06:28:21.224Z,44.49
2022-08-05T06:28:53.441Z,44.14
2022-08-05T06:29:52.008Z,43.99
2022-08-05T06:30:19.957Z,44.49
2022-08-05T06:30:52.935Z,45.27
2022-08-05T06:31:30.454Z,44.90
2022-08-05T06:32:03.913Z,44.46
2022-08-05T06:32:35.480Z,44.95
2022-08-05T06:33:10.041Z,44.76
2022-08-05T06:34:07.612Z,44.47
2022-08-05T06:34:34.067Z,45.18
2022-08-05T06:35:21.693Z,44.75
2022-08-05T06:36:07.621Z,43.30
2022-08-05T06:36:57.888Z,43.78
2022-08-05T06:37:57.450Z,44.02
2022-08-05T06:38:36.529Z,44.41
2022-08-05T06:39:08.740Z,44.40
2022-08-05T06:39:40.587Z,43.98
2022-08-05T06:40:14.073Z,43.85
2022-08-05T06:40:50.189Z,43.82
2022-08-05T06:41:22.332Z,43.84
2022-08-05T06:41:53.995Z,44.13
2022-08-05T06:42:25.646Z,44.31
2022-08-05T06:42:57.223Z,43.73
2022-08-05T06:43:58.137Z,43.82
2022-08-05T06:44:22.170Z,43.89
2022-08-05T06:44:53.772Z,43.91
2022-08-05T06:46:03.411Z,43.41
2022-08-05T06:46:16.918Z,43.58
2022-08-05T06:46:50.707Z,44.30
2022-08-05T06:48:11.519Z,44.23
2022-08-05T06:48:53.246Z,44.06
2022-08-05T06:49:07.545Z,44.40
2022-08-05T06:50:01.402Z,44.30
2022-08-05T06:50:31.858Z,44.23
2022-08-05T06:51:09.588Z,43.80
2022-08-05T06:51:42.886Z,43.86
2022-08-05T06:52:37.872Z,44.05
2022-08-05T06:53:19.644Z,44.47
2022-08-05T06:54:03.331Z,43.67
2022-08-05T06:54:34.948Z,43.83
2022-08-05T06:55:07.941Z,44.28
2022-08-05T06:55:42.011Z,44.13
2022-08-05T06:56:26.535Z,43.93
2022-08-05T06:57:58.098Z,44.32
2022-08-05T06:58:02.254Z,44.49
2022-08-05T06:58:42.139Z,44.55
2022-08-05T06:59:18.339Z,44.41
2022-08-05T06:59:55.160Z,43.99
2022-08-05T07:00:31.322Z,43.73
2022-08-05T07:01:07.110Z,43.79
2022-08-05T07:01:40.817Z,43.92
2022-08-05T07:02:14.089Z,44.20
2022-08-05T07:02:47.457Z,44.22
2022-08-05T07:03:27.991Z,43.76
2022-08-05T07:04:04.342Z,43.58
2022-08-05T07:04:36.438Z,43.74
2022-08-05T07:05:18.731Z,43.50
2022-08-05T07:05:51.183Z,43.79
2022-08-05T07:06:23.339Z,43.37
2022-08-05T07:06:54.964Z,43.58
2022-08-05T07:07:43.088Z,43.86
2022-08-05T07:08:14.938Z,44.27
2022-08-05T07:08:47.838Z,43.68
2022-08-05T07:09:24.766Z,43.35
2022-08-05T07:09:58.288Z,43.71
2022-08-05T07:10:32.499Z,43.74
2022-08-05T07:11:05.267Z,43.40
2022-08-05T07:11:51.461Z,43.22
2022-08-05T07:12:42.182Z,43.48
2022-08-05T07:13:57.865Z,43.21
2022-08-05T07:14:49.479Z,43.42
2022-08-05T07:16:00.816Z,43.42
2022-08-05T07:17:58.198Z,43.43
2022-08-05T07:18:01.766Z,44.12
2022-08-05T07:18:34.943Z,44.02
2022-08-05T07:19:06.614Z,42.81
2022-08-05T07:20:16.782Z,43.35
2022-08-05T07:20:33.471Z,43.28
2022-08-05T07:21:06.210Z,43.90
2022-08-05T07:22:00.306Z,43.60
2022-08-05T07:22:33.515Z,42.95
2022-08-05T07:23:05.690Z,42.70
2022-08-05T07:23:40.600Z,43.22
2022-08-05T07:24:22.161Z,42.72
2022-08-05T07:24:53.814Z,42.46
2022-08-05T07:25:54.641Z,42.76
2022-08-05T07:26:22.452Z,42.38
2022-08-05T07:26:54.458Z,42.57
2022-08-05T07:27:27.544Z,41.92
2022-08-05T07:28:17.686Z,42.89
2022-08-05T07:28:50.825Z,42.56
2022-08-05T07:29:25.318Z,42.69
2022-08-05T07:30:24.084Z,42.51
2022-08-05T07:31:00.024Z,42.56
2022-08-05T07:31:40.435Z,42.57
2022-08-05T07:32:26.110Z,41.88
2022-08-05T07:32:57.963Z,41.96
2022-08-05T07:33:36.728Z,42.32
2022-08-05T07:34:09.466Z,42.46
2022-08-05T07:34:45.596Z,42.33
2022-08-05T07:36:05.023Z,42.17
2022-08-05T07:36:21.135Z,41.38
2022-08-05T07:36:53.252Z,41.19
2022-08-05T07:37:29.094Z,41.89
2022-08-05T07:38:12.265Z,41.42
2022-08-05T07:38:44.289Z,41.34
2022-08-05T07:39:24.622Z,41.28
2022-08-05T07:40:32.600Z,41.36
2022-08-05T07:41:04.456Z,41.64
2022-08-05T07:42:08.074Z,41.03
2022-08-05T07:42:41.702Z,41.60
2022-08-05T07:43:20.830Z,40.92
2022-08-05T07:43:56.445Z,40.90
2022-08-05T07:44:28.416Z,41.00
2022-08-05T07:45:00.762Z,40.78
2022-08-05T07:45:57.647Z,40.79
2022-08-05T07:46:26.755Z,40.73
2022-08-05T07:46:58.604Z,41.27
2022-08-05T07:47:42.608Z,41.42
2022-08-05T07:48:14.296Z,40.64
2022-08-05T07:49:07.810Z,41.90
2022-08-05T07:49:43.334Z,41.30
2022-08-05T07:50:16.463Z,41.81
2022-08-05T07:50:48.323Z,41.02
2022-08-05T07:51:23.578Z,41.06
2022-08-05T07:52:08.273Z,40.76
2022-08-05T07:52:43.395Z,39.87
2022-08-05T07:53:15.948Z,39.61
2022-08-05T07:53:50.261Z,39.44
2022-08-05T07:54:30.604Z,39.51
2022-08-05T07:55:03.618Z,39.71
2022-08-05T07:56:06.350Z,39.34
2022-08-05T07:57:13.712Z,39.73
2022-08-05T07:57:51.372Z,40.17
2022-08-05T07:58:57.321Z,38.77
2022-08-05T07:59:14.063Z,38.04
2022-08-05T07:59:46.931Z,38.44
2022-08-05T08:00:20.634Z,38.43
2022-08-05T08:00:53.457Z,38.29
2022-08-05T08:01:26.070Z,37.99
2022-08-05T08:02:03.214Z,38.43
2022-08-05T08:03:14.973Z,38.65
2022-08-05T08:03:44.572Z,38.59
2022-08-05T08:04:16.613Z,38.78
2022-08-05T08:04:55.303Z,38.09
2022-08-05T08:05:27.383Z,37.86
2022-08-05T08:05:58.941Z,37.72
2022-08-05T08:06:31.220Z,37.62
2022-08-05T08:07:05.348Z,37.82
2022-08-05T08:07:39.445Z,37.99
2022-08-05T08:08:26.049Z,37.82
2022-08-05T08:08:57.738Z,37.60
2022-08-05T08:09:29.713Z,38.10
2022-08-05T08:10:01.791Z,38.02
2022-08-05T08:10:33.402Z,37.92
2022-08-05T08:11:05.055Z,37.91
2022-08-05T08:11:49.451Z,37.36
2022-08-05T08:12:48.935Z,37.40
2022-08-05T08:13:22.165Z,37.68
2022-08-05T08:14:01.290Z,37.20
2022-08-05T08:14:32.922Z,37.54
2022-08-05T08:15:13.972Z,37.37
2022-08-05T08:16:34.774Z,37.01
2022-08-05T08:16:51.015Z,36.89
2022-08-05T08:17:27.760Z,36.30
2022-08-05T08:18:01.843Z,36.13
2022-08-05T08:18:34.103Z,36.38
2022-08-05T08:19:09.110Z,36.25
2022-08-05T08:20:44.605Z,35.63
2022-08-05T08:21:01.950Z,35.20
2022-08-05T08:21:35.304Z,35.52
2022-08-05T08:22:09.080Z,35.15
2022-08-05T08:22:40.826Z,33.97
2022-08-05T08:24:03.403Z,33.55
2022-08-05T08:24:13.581Z,33.57
2022-08-05T08:24:51.573Z,33.50
2022-08-05T08:25:26.486Z,33.91
2022-08-05T08:26:00.896Z,34.15
2022-08-05T08:26:34.576Z,34.62
2022-08-05T08:27:07.192Z,34.22
2022-08-05T08:27:45.075Z,33.79
2022-08-05T08:28:36.673Z,33.46
2022-08-05T08:29:29.526Z,34.19
2022-08-05T08:30:05.938Z,34.17
2022-08-05T08:30:52.333Z,34.84
2022-08-05T08:31:24.064Z,35.69
2022-08-05T08:31:58.636Z,35.78
2022-08-05T08:32:30.787Z,35.44